createdAt,value
2023-04-26T00:02:22.020Z,99268.56
2023-04-26T00:04:56.269Z,99258.16
2023-04-26T00:07:28.694Z,99266.81
2023-04-26T00:09:56.205Z,99266.88
2023-04-26T00:12:23.426Z,99271.34
2023-04-26T00:14:50.863Z,99278.00
2023-04-26T00:17:18.314Z,99285.13
2023-04-26T00:19:45.463Z,99270.78
2023-04-26T00:22:13.452Z,99281.69
2023-04-26T00:24:41.900Z,99281.50
2023-04-26T00:27:10.547Z,99291.72
2023-04-26T00:29:37.762Z,99289.12
2023-04-26T00:32:05.551Z,99279.34
2023-04-26T00:34:33.995Z,99290.47
2023-04-26T00:37:01.152Z,99294.44
2023-04-26T00:39:28.869Z,99304.56
2023-04-26T00:41:56.282Z,99303.78
2023-04-26T00:44:23.516Z,99305.34
2023-04-26T00:46:52.561Z,99300.41
2023-04-26T00:49:21.903Z,99305.47
2023-04-26T00:51:49.230Z,99307.22
2023-04-26T00:54:16.675Z,99313.81
2023-04-26T00:56:44.252Z,99311.06
2023-04-26T00:59:11.427Z,99300.97
2023-04-26T01:01:40.637Z,99313.41
2023-04-26T01:04:08.407Z,99315.78
2023-04-26T01:06:35.892Z,99315.16
2023-04-26T01:09:08.247Z,99319.34
2023-04-26T01:11:36.105Z,99311.25
2023-04-26T01:14:08.517Z,99309.72
2023-04-26T01:16:35.746Z,99305.84
2023-04-26T01:19:12.587Z,99316.75
2023-04-26T01:21:40.264Z,99321.63
2023-04-26T01:24:08.212Z,99317.28
2023-04-26T01:26:44.084Z,99325.34
2023-04-26T01:29:15.703Z,99330.87
2023-04-26T01:31:43.538Z,99334.53
2023-04-26T01:34:10.944Z,99338.97
2023-04-26T01:36:38.367Z,99338.16
2023-04-26T01:39:05.693Z,99342.16
2023-04-26T01:41:33.762Z,99343.31
2023-04-26T01:44:01.482Z,99344.53
2023-04-26T01:46:28.828Z,99349.25
2023-04-26T01:48:57.354Z,99355.34
2023-04-26T01:51:24.862Z,99342.81
2023-04-26T01:53:52.002Z,99353.53
2023-04-26T01:56:19.707Z,99349.56
2023-04-26T01:58:47.507Z,99357.66
2023-04-26T02:01:14.838Z,99358.97
2023-04-26T02:03:44.979Z,99355.75
2023-04-26T02:06:12.171Z,99362.84
2023-04-26T02:08:39.301Z,99362.84
2023-04-26T02:11:07.064Z,99355.34
2023-04-26T02:13:36.426Z,99358.34
2023-04-26T02:16:03.753Z,99360.50
2023-04-26T02:18:31.217Z,99363.25
2023-04-26T02:20:58.361Z,99360.78
2023-04-26T02:23:25.517Z,99369.22
2023-04-26T02:25:52.927Z,99369.47
2023-04-26T02:28:21.019Z,99356.81
2023-04-26T02:30:48.152Z,99367.03
2023-04-26T02:33:15.404Z,99370.78
2023-04-26T02:35:43.010Z,99385.13
2023-04-26T02:38:10.935Z,99368.53
2023-04-26T02:40:38.086Z,99372.06
2023-04-26T02:43:07.187Z,99375.03
2023-04-26T02:45:34.325Z,99369.72
2023-04-26T02:48:01.850Z,99366.81
2023-04-26T02:50:29.583Z,99365.28
2023-04-26T02:52:56.743Z,99365.12
2023-04-26T02:55:23.896Z,99369.25
2023-04-26T02:57:51.569Z,99373.41
2023-04-26T03:00:18.788Z,99380.62
2023-04-26T03:02:46.138Z,99373.94
2023-04-26T03:05:13.895Z,99384.37
2023-04-26T03:07:41.425Z,99390.50
2023-04-26T03:10:09.906Z,99389.47
2023-04-26T03:12:37.876Z,99400.53
2023-04-26T03:15:05.396Z,99397.88
2023-04-26T03:17:33.358Z,99397.16
2023-04-26T03:20:02.739Z,99407.97
2023-04-26T03:22:30.244Z,99412.31
2023-04-26T03:24:57.528Z,99422.94
2023-04-26T03:27:26.535Z,99420.72
2023-04-26T03:29:54.024Z,99432.69
2023-04-26T03:32:21.578Z,99427.53
2023-04-26T03:34:49.953Z,99422.66
2023-04-26T03:37:17.138Z,99433.91
2023-04-26T03:39:44.976Z,99436.50
2023-04-26T03:42:14.021Z,99439.56
2023-04-26T03:44:41.606Z,99433.16
2023-04-26T03:47:08.829Z,99435.94
2023-04-26T03:49:37.020Z,99435.34
2023-04-26T03:52:04.224Z,99437.25
2023-04-26T03:54:32.012Z,99435.81
2023-04-26T03:56:59.476Z,99453.50
2023-04-26T03:59:26.743Z,99448.03
2023-04-26T04:01:53.970Z,99451.19
2023-04-26T04:04:21.754Z,99454.06
2023-04-26T04:06:49.557Z,99457.03
2023-04-26T04:09:18.070Z,99451.31
2023-04-26T04:11:47.391Z,99463.47
2023-04-26T04:14:14.828Z,99461.16
2023-04-26T04:16:42.005Z,99473.22
2023-04-26T04:19:09.521Z,99478.78
2023-04-26T04:21:36.707Z,99480.53
2023-04-26T04:24:04.050Z,99487.34
2023-04-26T04:26:31.668Z,99501.59
2023-04-26T04:29:08.543Z,99497.59
2023-04-26T04:31:36.677Z,99504.94
2023-04-26T04:34:03.953Z,99499.16
2023-04-26T04:36:31.569Z,99504.38
2023-04-26T04:38:59.089Z,99509.62
2023-04-26T04:41:27.919Z,99514.31
2023-04-26T04:43:55.409Z,99512.38
2023-04-26T04:46:25.458Z,99509.25
2023-04-26T04:48:53.562Z,99513.91
2023-04-26T04:51:21.307Z,99527.41
2023-04-26T04:53:49.109Z,99535.84
2023-04-26T04:56:18.430Z,99537.47
2023-04-26T04:58:46.337Z,99537.94
2023-04-26T05:01:15.100Z,99533.09
2023-04-26T05:03:42.624Z,99529.06
2023-04-26T05:06:09.981Z,99541.06
2023-04-26T05:08:37.428Z,99539.31
2023-04-26T05:11:05.023Z,99547.03
2023-04-26T05:13:32.234Z,99545.53
2023-04-26T05:16:00.001Z,99548.31
2023-04-26T05:18:27.262Z,99557.41
2023-04-26T05:20:54.606Z,99549.19
2023-04-26T05:23:22.217Z,99560.75
2023-04-26T05:25:49.445Z,99555.59
2023-04-26T05:28:17.550Z,99555.66
2023-04-26T05:30:47.361Z,99553.81
2023-04-26T05:33:15.046Z,99555.66
2023-04-26T05:35:42.370Z,99563.84
2023-04-26T05:38:09.857Z,99554.00
2023-04-26T05:40:37.263Z,99559.78
2023-04-26T05:43:05.459Z,99567.56
2023-04-26T05:45:33.149Z,99566.69
2023-04-26T05:48:01.141Z,99561.41
2023-04-26T05:50:30.162Z,99557.50
2023-04-26T05:52:57.708Z,99564.72
2023-04-26T05:55:24.901Z,99556.31
2023-04-26T05:57:52.485Z,99558.44
2023-04-26T06:00:22.689Z,99562.56
2023-04-26T06:02:50.282Z,99558.78
2023-04-26T06:05:17.721Z,99565.41
2023-04-26T06:07:46.101Z,99568.59
2023-04-26T06:10:13.580Z,99569.28
2023-04-26T06:12:41.377Z,99572.84
2023-04-26T06:15:08.841Z,99572.72
2023-04-26T06:17:38.042Z,99571.69
2023-04-26T06:20:05.845Z,99571.50
2023-04-26T06:22:33.032Z,99571.19
2023-04-26T06:25:00.572Z,99570.50
2023-04-26T06:27:27.772Z,99563.34
2023-04-26T06:29:55.176Z,99578.19
2023-04-26T06:32:22.850Z,99582.06
2023-04-26T06:34:50.680Z,99556.25
2023-04-26T06:37:19.095Z,99576.66
2023-04-26T06:39:46.808Z,99582.00
2023-04-26T06:42:13.988Z,99570.09
2023-04-26T06:44:41.888Z,99561.28
2023-04-26T06:47:11.314Z,99592.47
2023-04-26T06:49:38.836Z,99575.31
2023-04-26T06:52:08.264Z,99573.13
2023-04-26T06:54:45.898Z,99575.69
2023-04-26T06:57:17.260Z,99584.91
2023-04-26T06:59:45.241Z,99593.81
2023-04-26T07:02:13.887Z,99590.53
2023-04-26T07:04:42.515Z,99590.91
2023-04-26T07:07:13.038Z,99588.47
2023-04-26T07:09:41.118Z,99585.53
2023-04-26T07:12:08.518Z,99579.22
2023-04-26T07:14:39.437Z,99579.31
2023-04-26T07:17:10.943Z,99569.31
2023-04-26T07:19:38.696Z,99571.84
2023-04-26T07:22:06.045Z,99585.06
2023-04-26T07:24:33.294Z,99586.62
2023-04-26T07:27:01.251Z,99599.66
2023-04-26T07:29:28.653Z,99599.19
2023-04-26T07:31:57.089Z,99600.06
2023-04-26T07:34:24.554Z,99592.81
2023-04-26T07:36:51.701Z,99604.00
2023-04-26T07:39:19.033Z,99590.91
2023-04-26T07:41:46.513Z,99601.94
2023-04-26T07:44:13.894Z,99603.03
2023-04-26T07:46:41.107Z,99598.28
2023-04-26T07:49:08.715Z,99603.94
2023-04-26T07:51:35.843Z,99600.75
2023-04-26T07:54:03.050Z,99594.38
2023-04-26T07:56:30.552Z,99615.38
2023-04-26T07:58:58.086Z,99600.06
2023-04-26T08:01:25.669Z,99609.41
2023-04-26T08:03:53.653Z,99617.94
2023-04-26T08:06:21.916Z,99616.03
2023-04-26T08:08:50.843Z,99622.38
2023-04-26T08:11:18.675Z,99630.03
2023-04-26T08:13:46.359Z,99606.16
2023-04-26T08:16:14.215Z,99627.87
2023-04-26T08:18:43.929Z,99625.59
2023-04-26T08:21:13.517Z,99627.09
2023-04-26T08:23:40.776Z,99623.09
2023-04-26T08:26:08.333Z,99638.59
2023-04-26T08:28:35.869Z,99635.37
2023-04-26T08:31:03.422Z,99604.66
2023-04-26T08:33:30.857Z,99644.66
2023-04-26T08:35:59.138Z,99645.09
2023-04-26T08:38:26.338Z,99648.00
2023-04-26T08:40:53.788Z,99625.00
2023-04-26T08:43:20.901Z,99639.34
2023-04-26T08:45:48.180Z,99660.06
2023-04-26T08:48:18.068Z,99639.25
2023-04-26T08:50:46.656Z,99633.91
2023-04-26T08:53:14.418Z,99639.59
2023-04-26T08:58:10.971Z,99655.75
2023-04-26T09:00:38.262Z,99660.13
2023-04-26T09:03:05.788Z,99672.00
2023-04-26T09:05:33.542Z,99658.56
2023-04-26T09:08:02.217Z,99636.75
2023-04-26T09:10:29.708Z,99665.09
2023-04-26T09:12:56.894Z,99669.84
2023-04-26T09:15:24.699Z,99649.84
2023-04-26T09:17:52.815Z,99644.72
2023-04-26T09:20:21.294Z,99639.03
2023-04-26T09:22:49.319Z,99640.03
2023-04-26T09:25:17.820Z,99648.88
2023-04-26T09:27:45.061Z,99636.97
2023-04-26T09:30:13.871Z,99649.22
2023-04-26T09:32:44.637Z,99663.94
2023-04-26T09:35:27.460Z,99660.72
2023-04-26T09:37:59.568Z,99643.63
2023-04-26T09:40:28.523Z,99639.41
2023-04-26T09:43:04.586Z,99652.94
2023-04-26T09:45:32.638Z,99636.66
2023-04-26T09:48:16.988Z,99657.41
2023-04-26T09:50:48.192Z,99646.81
2023-04-26T09:53:25.864Z,99612.78
2023-04-26T09:55:53.652Z,99652.00
2023-04-26T09:58:21.127Z,99655.63
2023-04-26T10:00:49.654Z,99657.50
2023-04-26T10:03:18.472Z,99651.47
2023-04-26T10:05:46.240Z,99658.28
2023-04-26T10:08:13.463Z,99657.78
2023-04-26T10:10:41.321Z,99655.03
2023-04-26T10:13:08.520Z,99651.84
2023-04-26T10:15:35.916Z,99655.19
2023-04-26T10:18:04.474Z,99663.94
2023-04-26T10:20:31.683Z,99672.38
2023-04-26T10:23:01.526Z,99659.38
2023-04-26T10:25:41.972Z,99666.34
2023-04-26T10:28:09.649Z,99660.09
2023-04-26T10:30:56.158Z,99649.94
2023-04-26T10:33:23.984Z,99658.53
2023-04-26T10:36:04.029Z,99666.75
2023-04-26T10:38:31.521Z,99663.34
2023-04-26T10:41:18.875Z,99667.03
2023-04-26T10:43:46.083Z,99680.94
2023-04-26T10:46:32.441Z,99670.56
2023-04-26T10:48:59.600Z,99660.34
2023-04-26T10:51:27.254Z,99657.72
2023-04-26T10:53:54.727Z,99667.38
2023-04-26T10:56:28.470Z,99666.97
2023-04-26T10:59:23.191Z,99668.72
2023-04-26T11:01:56.353Z,99666.69
2023-04-26T11:04:24.113Z,99636.75
2023-04-26T11:06:52.097Z,99650.41
2023-04-26T11:09:36.163Z,99652.38
2023-04-26T11:12:04.473Z,99645.94
2023-04-26T11:14:33.516Z,99655.81
2023-04-26T11:17:03.564Z,99653.19
2023-04-26T11:19:31.436Z,99646.19
2023-04-26T11:22:01.991Z,99648.38
2023-04-26T11:24:33.521Z,99649.50
2023-04-26T11:27:01.208Z,99647.12
2023-04-26T11:29:28.657Z,99659.38
2023-04-26T11:31:56.590Z,99666.84
2023-04-26T11:34:37.056Z,99652.69
2023-04-26T11:37:04.910Z,99662.78
2023-04-26T11:39:32.751Z,99664.16
2023-04-26T11:42:07.392Z,99651.06
2023-04-26T11:44:35.505Z,99652.75
2023-04-26T11:47:04.150Z,99657.59
2023-04-26T11:49:31.790Z,99658.59
2023-04-26T11:51:59.240Z,99648.94
2023-04-26T11:54:33.365Z,99652.28
2023-04-26T11:57:01.121Z,99660.63
2023-04-26T11:59:29.285Z,99666.34
2023-04-26T12:02:00.514Z,99652.59
2023-04-26T12:04:30.307Z,99673.37
2023-04-26T12:06:57.863Z,99671.66
2023-04-26T12:09:29.687Z,99680.41
2023-04-26T12:11:59.003Z,99681.66
2023-04-26T12:14:36.350Z,99674.88
2023-04-26T12:17:04.465Z,99670.97
2023-04-26T12:19:38.617Z,99651.72
2023-04-26T12:22:06.960Z,99655.06
2023-04-26T12:24:36.665Z,99656.34
2023-04-26T12:27:06.122Z,99652.19
2023-04-26T12:29:33.760Z,99642.81
2023-04-26T12:32:01.370Z,99654.19
2023-04-26T12:34:28.635Z,99661.62
2023-04-26T12:36:56.285Z,99662.94
2023-04-26T12:39:23.461Z,99680.00
2023-04-26T12:41:50.629Z,99685.66
2023-04-26T12:44:20.361Z,99687.03
2023-04-26T12:46:49.224Z,99677.81
2023-04-26T12:49:16.396Z,99680.41
2023-04-26T12:51:43.820Z,99677.34
2023-04-26T12:54:10.991Z,99685.53
2023-04-26T12:56:43.620Z,99691.59
2023-04-26T12:59:11.134Z,99685.75
2023-04-26T13:01:39.453Z,99692.06
2023-04-26T13:04:07.154Z,99681.97
2023-04-26T13:06:34.988Z,99686.28
2023-04-26T13:09:02.603Z,99687.66
2023-04-26T13:11:29.815Z,99667.03
2023-04-26T13:13:57.228Z,99688.03
2023-04-26T13:16:24.394Z,99688.25
2023-04-26T13:18:51.708Z,99691.97
2023-04-26T13:21:19.115Z,99696.75
2023-04-26T13:23:47.327Z,99690.09
2023-04-26T13:26:17.560Z,99689.81
2023-04-26T13:28:45.116Z,99687.00
2023-04-26T13:31:12.291Z,99698.00
2023-04-26T13:33:39.484Z,99701.00
2023-04-26T13:36:07.418Z,99700.78
2023-04-26T13:38:34.618Z,99698.38
2023-04-26T13:41:02.773Z,99705.41
2023-04-26T13:43:30.205Z,99711.44
2023-04-26T13:45:57.550Z,99712.28
2023-04-26T13:48:24.843Z,99706.81
2023-04-26T13:50:52.286Z,99710.78
2023-04-26T13:53:22.307Z,99708.06
2023-04-26T13:55:49.455Z,99705.81
2023-04-26T13:58:17.181Z,99705.88
2023-04-26T14:00:44.619Z,99713.53
2023-04-26T14:03:12.832Z,99720.94
2023-04-26T14:05:40.183Z,99710.41
2023-04-26T14:08:08.217Z,99716.41
2023-04-26T14:10:35.615Z,99728.56
2023-04-26T14:13:02.764Z,99724.09
2023-04-26T14:15:29.953Z,99731.12
2023-04-26T14:17:57.475Z,99727.63
2023-04-26T14:20:24.734Z,99736.13
2023-04-26T14:22:51.937Z,99733.41
2023-04-26T14:25:19.416Z,99738.50
2023-04-26T14:27:47.033Z,99745.00
2023-04-26T14:30:14.505Z,99718.41
2023-04-26T14:32:42.044Z,99747.22
2023-04-26T14:35:09.347Z,99738.31
2023-04-26T14:37:36.731Z,99738.78
2023-04-26T14:40:04.812Z,99740.09
2023-04-26T14:42:32.304Z,99745.12
2023-04-26T14:44:59.709Z,99736.41
2023-04-26T14:47:27.498Z,99728.19
2023-04-26T14:49:54.876Z,99737.03
2023-04-26T14:52:26.826Z,99746.06
2023-04-26T14:54:54.261Z,99742.84
2023-04-26T14:57:22.357Z,99732.84
2023-04-26T14:59:49.736Z,99739.47
2023-04-26T15:02:17.402Z,99735.56
2023-04-26T15:04:45.064Z,99751.69
2023-04-26T15:07:21.081Z,99730.62
2023-04-26T15:09:58.768Z,99744.47
2023-04-26T15:12:25.999Z,99744.38
2023-04-26T15:14:53.167Z,99739.91
2023-04-26T15:17:20.631Z,99745.50
2023-04-26T15:19:48.033Z,99741.31
2023-04-26T15:22:15.170Z,99747.28
2023-04-26T15:24:42.631Z,99749.37
2023-04-26T15:27:10.467Z,99748.22
2023-04-26T15:29:37.732Z,99752.38
2023-04-26T15:32:05.124Z,99747.88
2023-04-26T15:34:39.221Z,99749.19
2023-04-26T15:37:06.922Z,99745.31
2023-04-26T15:39:34.075Z,99755.75
2023-04-26T15:42:01.424Z,99747.97
2023-04-26T15:44:28.861Z,99757.59
2023-04-26T15:46:56.035Z,99756.13
2023-04-26T15:49:23.748Z,99756.38
2023-04-26T15:51:51.225Z,99749.13
2023-04-26T15:54:18.476Z,99757.37
2023-04-26T15:56:47.090Z,99752.94
2023-04-26T15:59:14.529Z,99766.69
2023-04-26T16:01:41.958Z,99763.38
2023-04-26T16:04:10.181Z,99759.56
2023-04-26T16:06:37.794Z,99759.66
2023-04-26T16:09:17.201Z,99767.22
2023-04-26T16:11:51.315Z,99767.50
2023-04-26T16:14:19.742Z,99754.16
2023-04-26T16:16:46.904Z,99776.72
2023-04-26T16:19:14.373Z,99780.44
2023-04-26T16:21:41.745Z,99784.03
2023-04-26T16:24:09.413Z,99781.13
2023-04-26T16:26:36.992Z,99786.78
2023-04-26T16:29:04.436Z,99784.81
2023-04-26T16:31:32.462Z,99788.37
2023-04-26T16:34:00.036Z,99777.19
2023-04-26T16:36:28.545Z,99787.28
2023-04-26T16:38:56.712Z,99780.34
2023-04-26T16:41:24.622Z,99779.63
2023-04-26T16:43:53.023Z,99779.72
2023-04-26T16:46:20.339Z,99779.06
2023-04-26T16:48:47.870Z,99769.81
2023-04-26T16:51:15.020Z,99776.28
2023-04-26T16:53:43.470Z,99786.78
2023-04-26T16:56:11.086Z,99790.31
2023-04-26T16:58:39.070Z,99793.06
2023-04-26T17:01:06.402Z,99793.47
2023-04-26T17:03:34.406Z,99786.13
2023-04-26T17:06:01.723Z,99802.00
2023-04-26T17:08:29.283Z,99794.50
2023-04-26T17:10:57.220Z,99804.34
2023-04-26T17:13:29.158Z,99797.84
2023-04-26T17:15:57.486Z,99805.69
2023-04-26T17:18:25.318Z,99805.13
2023-04-26T17:20:54.177Z,99810.81
2023-04-26T17:23:21.732Z,99800.41
2023-04-26T17:25:49.536Z,99807.44
2023-04-26T17:28:16.987Z,99814.59
2023-04-26T17:30:44.906Z,99809.34
2023-04-26T17:33:12.345Z,99816.44
2023-04-26T17:35:39.880Z,99823.63
2023-04-26T17:38:07.856Z,99832.72
2023-04-26T17:40:35.725Z,99840.63
2023-04-26T17:43:05.035Z,99846.41
2023-04-26T17:45:32.692Z,99832.50
2023-04-26T17:48:00.052Z,99852.78
2023-04-26T17:50:27.249Z,99853.53
2023-04-26T17:52:54.691Z,99851.38
2023-04-26T17:55:23.238Z,99854.44
2023-04-26T17:57:50.684Z,99863.91
2023-04-26T18:00:18.664Z,99871.69
2023-04-26T18:02:47.066Z,99863.91
2023-04-26T18:05:16.844Z,99864.28
2023-04-26T18:07:44.473Z,99872.28
2023-04-26T18:10:12.872Z,99872.50
2023-04-26T18:12:41.519Z,99869.56
2023-04-26T18:15:09.480Z,99871.50
2023-04-26T18:17:40.673Z,99886.56
2023-04-26T18:20:08.606Z,99882.53
2023-04-26T18:22:36.970Z,99885.44
2023-04-26T18:25:04.926Z,99888.78
2023-04-26T18:27:33.623Z,99892.06
2023-04-26T18:30:01.941Z,99887.41
2023-04-26T18:32:30.232Z,99885.50
2023-04-26T18:34:57.920Z,99889.84
2023-04-26T18:37:25.848Z,99895.44
2023-04-26T18:39:53.545Z,99899.34
2023-04-26T18:42:21.334Z,99901.84
2023-04-26T18:44:50.323Z,99906.38
2023-04-26T18:47:17.836Z,99911.75
2023-04-26T18:49:45.272Z,99918.84
2023-04-26T18:52:12.750Z,99913.22
2023-04-26T18:54:40.500Z,99927.94
2023-04-26T18:57:08.206Z,99926.97
2023-04-26T18:59:35.786Z,99929.50
2023-04-26T19:02:04.773Z,99929.56
2023-04-26T19:04:33.253Z,99932.84
2023-04-26T19:07:01.914Z,99934.53
2023-04-26T19:09:31.960Z,99938.84
2023-04-26T19:12:01.377Z,99933.91
2023-04-26T19:14:29.144Z,99936.22
2023-04-26T19:17:02.562Z,99935.03
2023-04-26T19:19:29.754Z,99937.41
2023-04-26T19:21:57.447Z,99932.84
2023-04-26T19:24:25.528Z,99934.75
2023-04-26T19:26:53.238Z,99935.69
2023-04-26T19:29:21.847Z,99935.56
2023-04-26T19:31:50.415Z,99935.09
2023-04-26T19:34:21.443Z,99945.97
2023-04-26T19:36:49.367Z,99944.50
2023-04-26T19:39:18.310Z,99936.66
2023-04-26T19:41:46.843Z,99952.50
2023-04-26T19:44:20.306Z,99950.63
2023-04-26T19:46:48.186Z,99959.75
2023-04-26T19:49:16.555Z,99955.34
2023-04-26T19:51:44.705Z,99959.72
2023-04-26T19:54:13.675Z,99962.56
2023-04-26T19:56:41.859Z,99964.94
2023-04-26T19:59:09.969Z,99962.06
2023-04-26T20:01:38.375Z,99963.13
2023-04-26T20:04:09.543Z,99967.19
2023-04-26T20:06:37.014Z,99957.81
2023-04-26T20:09:05.693Z,99964.78
2023-04-26T20:11:34.443Z,99960.88
2023-04-26T20:14:02.509Z,99965.63
2023-04-26T20:16:30.584Z,99961.91
2023-04-26T20:19:01.625Z,99964.97
2023-04-26T20:21:29.362Z,99962.31
2023-04-26T20:23:58.071Z,99953.97
2023-04-26T20:26:26.011Z,99957.97
2023-04-26T20:28:57.017Z,99953.59
2023-04-26T20:31:25.308Z,99962.91
2023-04-26T20:33:54.507Z,99962.97
2023-04-26T20:36:22.039Z,99967.44
2023-04-26T20:38:49.853Z,99968.94
2023-04-26T20:41:17.455Z,99968.78
2023-04-26T20:43:44.636Z,99975.12
2023-04-26T20:46:12.045Z,99979.09
2023-04-26T20:48:40.036Z,99973.72
2023-04-26T20:51:07.393Z,99979.63
2023-04-26T20:53:35.353Z,99978.37
2023-04-26T20:56:03.568Z,99975.63
2023-04-26T20:58:30.809Z,99986.13
2023-04-26T21:00:59.415Z,99999.06
2023-04-26T21:03:27.284Z,99998.34
2023-04-26T21:05:54.585Z,100006.06
2023-04-26T21:08:21.809Z,99991.19
2023-04-26T21:10:49.266Z,99993.13
2023-04-26T21:13:16.650Z,100001.53
2023-04-26T21:15:43.772Z,100006.19
2023-04-26T21:18:11.167Z,100004.53
2023-04-26T21:20:38.382Z,100001.28
2023-04-26T21:23:05.800Z,100003.25
2023-04-26T21:25:33.282Z,100011.59
2023-04-26T21:28:00.432Z,100009.91
2023-04-26T21:30:27.632Z,100005.41
2023-04-26T21:32:55.183Z,100006.81
2023-04-26T21:35:22.894Z,100007.38
2023-04-26T21:37:50.133Z,100013.06
2023-04-26T21:40:17.589Z,100020.00
2023-04-26T21:42:54.274Z,100021.31
2023-04-26T21:45:31.311Z,100023.19
2023-04-26T21:47:59.965Z,100023.66
2023-04-26T21:50:28.962Z,100026.94
2023-04-26T21:52:56.483Z,100035.31
2023-04-26T21:55:23.623Z,100027.81
2023-04-26T21:57:50.737Z,100035.78
2023-04-26T22:00:18.205Z,100042.28
2023-04-26T22:02:47.270Z,100051.34
2023-04-26T22:05:14.486Z,100046.78
2023-04-26T22:07:41.685Z,100046.56
2023-04-26T22:10:09.366Z,100047.28
2023-04-26T22:12:36.553Z,100046.19
2023-04-26T22:15:03.966Z,100047.69
2023-04-26T22:17:31.738Z,100052.97
2023-04-26T22:19:58.938Z,100060.31
2023-04-26T22:22:26.073Z,100058.53
2023-04-26T22:24:53.538Z,100061.00
2023-04-26T22:27:20.751Z,100062.84
2023-04-26T22:29:47.877Z,100065.59
2023-04-26T22:32:15.453Z,100069.62
2023-04-26T22:34:43.953Z,100066.66
2023-04-26T22:37:20.751Z,100076.41
2023-04-26T22:39:49.195Z,100072.41
2023-04-26T22:42:16.544Z,100083.34
2023-04-26T22:44:43.717Z,100089.31
2023-04-26T22:47:11.157Z,100089.25
2023-04-26T22:49:38.292Z,100091.00
2023-04-26T22:52:11.588Z,100092.31
2023-04-26T22:54:41.922Z,100094.19
2023-04-26T22:57:09.068Z,100088.88
2023-04-26T22:59:36.249Z,100082.16
2023-04-26T23:02:03.979Z,100090.50
2023-04-26T23:04:31.190Z,100099.66
2023-04-26T23:06:58.386Z,100095.25
2023-04-26T23:09:26.028Z,100096.69
2023-04-26T23:11:53.226Z,100098.31
2023-04-26T23:14:20.401Z,100100.88
2023-04-26T23:16:47.868Z,100097.75
2023-04-26T23:19:15.269Z,100099.97
2023-04-26T23:21:42.563Z,100104.31
2023-04-26T23:24:10.014Z,100103.88
2023-04-26T23:26:37.165Z,100102.72
2023-04-26T23:29:04.360Z,100104.66
2023-04-26T23:31:31.846Z,100101.31
2023-04-26T23:33:59.077Z,100115.66
2023-04-26T23:36:27.657Z,100117.84
2023-04-26T23:38:55.136Z,100115.25
2023-04-26T23:41:22.306Z,100121.47
2023-04-26T23:43:49.478Z,100122.72
2023-04-26T23:46:16.975Z,100129.53
2023-04-26T23:48:44.293Z,100111.34
2023-04-26T23:51:11.533Z,100115.78
2023-04-26T23:53:39.747Z,100117.47
2023-04-26T23:56:07.754Z,100114.47
2023-04-26T23:58:34.912Z,100110.75
